Time;durP1;ratioP1;P1;durP2;ratioP2;P2;SDS_P1;SDS_P2;PMS_P1;PMS_P2;Temp;Humidity;BMP_temperature;BMP_pressure;BME280_temperature;BME280_humidity;BME280_pressure;Samples;Min_cycle;Max_cycle;Signal;HPM_P1;HPM_P2
2023/07/08 00:00:19;;;;;;;2.63;1.60;;;;;;;;;;4980020;28;93174;-55
2023/07/08 00:02:48;;;;;;;2.33;1.63;;;;;;;;;;4981194;28;93742;-54
2023/07/08 00:05:17;;;;;;;2.37;1.63;;;;;;;;;;4997145;28;93056;-54
2023/07/08 00:07:46;;;;;;;3.67;2.30;;;;;;;;;;4986427;28;92308;-54
2023/07/08 00:10:16;;;;;;;3.27;2.10;;;;;;;;;;4998178;28;94491;-54
2023/07/08 00:12:45;;;;;;;2.17;1.37;;;;;;;;;;4998234;28;92705;-54
2023/07/08 00:15:13;;;;;;;1.93;1.60;;;;;;;;;;4999781;28;92099;-54
2023/07/08 00:17:42;;;;;;;3.03;1.87;;;;;;;;;;4989547;28;92148;-54
2023/07/08 00:20:13;;;;;;;3.50;1.40;;;;;;;;;;4998081;28;93089;-54
2023/07/08 00:22:42;;;;;;;2.37;1.40;;;;;;;;;;4990370;28;91601;-54
2023/07/08 00:25:12;;;;;;;0.93;0.83;;;;;;;;;;4986233;28;91909;-54
2023/07/08 00:27:40;;;;;;;1.80;1.20;;;;;;;;;;4987264;28;92126;-55
2023/07/08 00:30:19;;;;;;;1.73;1.20;;;;;;;;;;4998884;28;95122;-54
2023/07/08 00:32:53;;;;;;;2.13;1.27;;;;;;;;;;4991241;28;94884;-54
2023/07/08 00:35:35;;;;;;;1.80;1.10;;;;;;;;;;4980326;28;91823;-54
2023/07/08 00:38:12;;;;;;;0.80;0.80;;;;;;;;;;4979788;28;92054;-54
2023/07/08 00:40:48;;;;;;;1.10;0.93;;;;;;;;;;4989250;28;93098;-54
2023/07/08 00:43:17;;;;;;;2.03;1.33;;;;;;;;;;4995031;28;92807;-54
2023/07/08 00:45:47;;;;;;;1.47;1.07;;;;;;;;;;4995809;28;92018;-54
2023/07/08 00:48:30;;;;;;;1.20;1.10;;;;;;;;;;4992205;28;91372;-54
2023/07/08 00:50:59;;;;;;;2.53;0.80;;;;;;;;;;4997358;28;94249;-54
2023/07/08 00:53:28;;;;;;;1.87;1.10;;;;;;;;;;4999522;28;93011;-54
2023/07/08 00:55:59;;;;;;;1.93;1.23;;;;;;;;;;4994188;28;93078;-54
2023/07/08 00:58:31;;;;;;;1.87;1.27;;;;;;;;;;4979755;28;92040;-54
2023/07/08 01:01:00;;;;;;;1.50;0.73;;;;;;;;;;4987813;28;93514;-54
2023/07/08 01:03:29;;;;;;;1.30;1.20;;;;;;;;;;4988821;28;92973;-54
2023/07/08 01:05:59;;;;;;;1.20;1.10;;;;;;;;;;4983231;28;91993;-54
2023/07/08 01:08:28;;;;;;;2.33;0.90;;;;;;;;;;4998398;28;92373;-54
2023/07/08 01:11:01;;;;;;;1.30;1.07;;;;;;;;;;4994434;28;94094;-54
2023/07/08 01:13:30;;;;;;;1.90;0.90;;;;;;;;;;4993667;28;92710;-54
2023/07/08 01:15:59;;;;;;;1.60;1.00;;;;;;;;;;4993461;28;92245;-54
2023/07/08 01:18:28;;;;;;;1.57;1.20;;;;;;;;;;4996277;28;92100;-54
2023/07/08 01:20:56;;;;;;;0.90;0.90;;;;;;;;;;4992078;28;94235;-54
2023/07/08 01:23:27;;;;;;;1.27;1.10;;;;;;;;;;4997093;28;94984;-54
2023/07/08 01:25:55;;;;;;;1.33;0.90;;;;;;;;;;4997299;28;91998;-54
2023/07/08 01:28:23;;;;;;;3.60;1.27;;;;;;;;;;4989130;28;92098;-54
2023/07/08 01:30:52;;;;;;;2.40;1.40;;;;;;;;;;4998756;28;94466;-54
2023/07/08 01:33:22;;;;;;;2.97;1.57;;;;;;;;;;4981609;28;93845;-54
2023/07/08 01:35:50;;;;;;;0.97;0.80;;;;;;;;;;4979463;28;91904;-54
2023/07/08 01:38:20;;;;;;;1.27;0.87;;;;;;;;;;4979207;28;91201;-54
2023/07/08 01:40:53;;;;;;;6.07;1.40;;;;;;;;;;4978781;28;94393;-54
2023/07/08 01:43:22;;;;;;;2.50;1.50;;;;;;;;;;4979302;28;93216;-54
2023/07/08 01:45:51;;;;;;;1.73;1.23;;;;;;;;;;4995088;28;92712;-54
2023/07/08 01:48:19;;;;;;;1.83;1.20;;;;;;;;;;4997549;28;92276;-53
2023/07/08 01:50:49;;;;;;;1.13;0.90;;;;;;;;;;4984070;28;93615;-54
2023/07/08 01:53:21;;;;;;;2.13;1.40;;;;;;;;;;4997792;28;93201;-54
2023/07/08 01:55:50;;;;;;;1.10;1.00;;;;;;;;;;4980185;28;91943;-54
2023/07/08 01:58:20;;;;;;;1.47;1.03;;;;;;;;;;4979583;28;91752;-54
2023/07/08 02:00:49;;;;;;;1.07;0.93;;;;;;;;;;4979813;28;93581;-54
2023/07/08 02:03:18;;;;;;;2.20;0.93;;;;;;;;;;4978758;28;92831;-53
2023/07/08 02:05:46;;;;;;;1.77;1.07;;;;;;;;;;4979879;28;91927;-54
2023/07/08 02:08:15;;;;;;;1.37;1.07;;;;;;;;;;4983413;28;91996;-54
2023/07/08 02:10:43;;;;;;;1.43;0.87;;;;;;;;;;4988302;28;95487;-54
2023/07/08 02:13:12;;;;;;;1.30;0.90;;;;;;;;;;4978187;28;93492;-54
2023/07/08 02:15:42;;;;;;;1.13;1.03;;;;;;;;;;4982815;28;92192;-54
2023/07/08 02:18:10;;;;;;;4.30;1.20;;;;;;;;;;4978467;28;92077;-54
2023/07/08 02:20:39;;;;;;;1.30;1.10;;;;;;;;;;4984958;28;93990;-54
2023/07/08 02:23:07;;;;;;;2.03;1.33;;;;;;;;;;4978364;28;93934;-54
2023/07/08 02:25:36;;;;;;;2.23;1.10;;;;;;;;;;4985724;28;92089;-54
2023/07/08 02:28:04;;;;;;;1.57;1.20;;;;;;;;;;4982876;28;91477;-54
2023/07/08 02:30:33;;;;;;;1.30;1.20;;;;;;;;;;4984800;28;93931;-54
2023/07/08 02:33:03;;;;;;;1.20;1.10;;;;;;;;;;4996546;28;92859;-54
2023/07/08 02:35:31;;;;;;;1.20;1.10;;;;;;;;;;4992402;28;92769;-54
2023/07/08 02:38:00;;;;;;;2.60;1.40;;;;;;;;;;4978349;28;92180;-54
2023/07/08 02:40:28;;;;;;;1.77;1.10;;;;;;;;;;4978033;28;93160;-54
2023/07/08 02:42:57;;;;;;;0.97;0.93;;;;;;;;;;4977374;28;93863;-54
2023/07/08 02:45:26;;;;;;;1.57;1.40;;;;;;;;;;4978589;28;92043;-54
2023/07/08 02:47:54;;;;;;;1.63;1.00;;;;;;;;;;4985283;28;91918;-54
2023/07/08 02:50:24;;;;;;;1.33;1.17;;;;;;;;;;4997847;28;93062;-54
2023/07/08 02:52:53;;;;;;;2.07;1.23;;;;;;;;;;4998238;28;92740;-53
2023/07/08 02:55:21;;;;;;;2.10;1.50;;;;;;;;;;4997966;28;91967;-54
2023/07/08 02:57:50;;;;;;;2.00;0.97;;;;;;;;;;4997811;28;92078;-54
2023/07/08 03:00:19;;;;;;;0.80;0.80;;;;;;;;;;4997378;28;94237;-54
2023/07/08 03:02:47;;;;;;;2.10;1.20;;;;;;;;;;5000584;28;93673;-54
2023/07/08 03:05:16;;;;;;;1.63;1.40;;;;;;;;;;4994133;28;92080;-54
2023/07/08 03:07:46;;;;;;;1.43;0.90;;;;;;;;;;4994303;28;92205;-54
2023/07/08 03:10:14;;;;;;;1.10;0.90;;;;;;;;;;4982152;28;93117;-54
2023/07/08 03:12:43;;;;;;;1.23;1.00;;;;;;;;;;4998710;28;92941;-54
2023/07/08 03:15:11;;;;;;;2.20;1.30;;;;;;;;;;4996178;28;92044;-53
2023/07/08 03:17:40;;;;;;;1.67;1.10;;;;;;;;;;4991453;28;91316;-54
2023/07/08 03:20:11;;;;;;;1.57;1.03;;;;;;;;;;4993646;28;92976;-54
2023/07/08 03:22:39;;;;;;;1.50;1.00;;;;;;;;;;4980970;28;93957;-54
2023/07/08 03:25:10;;;;;;;1.90;0.97;;;;;;;;;;4989690;28;92931;-54
2023/07/08 03:27:38;;;;;;;1.53;1.00;;;;;;;;;;4984485;28;92269;-54
2023/07/08 03:30:07;;;;;;;1.33;1.10;;;;;;;;;;4990726;28;93615;-54
2023/07/08 03:32:36;;;;;;;1.63;1.10;;;;;;;;;;4990639;28;93378;-54
2023/07/08 03:35:05;;;;;;;2.13;1.20;;;;;;;;;;4981234;28;91902;-54
2023/07/08 03:37:33;;;;;;;1.20;1.10;;;;;;;;;;4998658;28;92108;-53
2023/07/08 03:40:03;;;;;;;1.13;0.97;;;;;;;;;;5000373;28;93899;-55
2023/07/08 03:42:33;;;;;;;1.30;0.97;;;;;;;;;;5000767;28;92714;-54
2023/07/08 03:45:02;;;;;;;2.13;1.20;;;;;;;;;;5001010;28;91873;-54
2023/07/08 03:47:30;;;;;;;1.47;0.97;;;;;;;;;;5000540;28;91872;-54
2023/07/08 03:49:59;;;;;;;2.03;1.20;;;;;;;;;;4980027;28;95594;-54
2023/07/08 03:52:27;;;;;;;1.67;1.17;;;;;;;;;;4980575;28;92063;-54
2023/07/08 03:54:56;;;;;;;1.20;1.10;;;;;;;;;;4980934;28;92273;-54
2023/07/08 03:57:24;;;;;;;2.07;1.10;;;;;;;;;;4980739;28;92092;-54
2023/07/08 03:59:54;;;;;;;1.40;1.00;;;;;;;;;;4980222;28;94133;-54
2023/07/08 04:02:23;;;;;;;1.00;0.90;;;;;;;;;;4984751;28;93259;-54
2023/07/08 04:04:51;;;;;;;2.13;1.10;;;;;;;;;;5000020;28;93760;-54
2023/07/08 04:07:20;;;;;;;3.57;1.10;;;;;;;;;;4999969;28;91429;-55
2023/07/08 04:09:50;;;;;;;1.43;0.90;;;;;;;;;;4995264;28;94220;-54
2023/07/08 04:12:19;;;;;;;0.80;0.80;;;;;;;;;;4990646;28;93023;-54
2023/07/08 04:14:47;;;;;;;1.43;1.33;;;;;;;;;;5000112;28;92827;-54
2023/07/08 04:17:17;;;;;;;1.93;1.23;;;;;;;;;;4995929;28;92091;-54
2023/07/08 04:19:46;;;;;;;2.10;0.97;;;;;;;;;;4999580;28;94305;-54
2023/07/08 04:22:14;;;;;;;1.77;1.30;;;;;;;;;;4982626;28;94542;-54
2023/07/08 04:24:43;;;;;;;1.83;1.50;;;;;;;;;;4979417;28;92563;-54
2023/07/08 04:27:13;;;;;;;1.70;1.43;;;;;;;;;;4986606;28;92147;-54
2023/07/08 04:29:42;;;;;;;2.87;1.47;;;;;;;;;;4992944;28;93999;-54
2023/07/08 04:32:11;;;;;;;1.80;1.10;;;;;;;;;;4982420;28;92708;-54
2023/07/08 04:34:41;;;;;;;3.23;1.30;;;;;;;;;;4977346;28;92656;-54
2023/07/08 04:37:10;;;;;;;2.03;1.70;;;;;;;;;;4991305;28;92023;-54
2023/07/08 04:39:38;;;;;;;1.77;1.40;;;;;;;;;;4983914;28;97497;-54
2023/07/08 04:42:06;;;;;;;2.67;1.47;;;;;;;;;;4996331;28;94918;-54
2023/07/08 04:44:37;;;;;;;1.67;1.20;;;;;;;;;;4990028;28;92221;-54
2023/07/08 04:47:06;;;;;;;2.83;1.20;;;;;;;;;;4977218;28;92568;-54
2023/07/08 04:49:35;;;;;;;1.50;1.40;;;;;;;;;;4976818;28;93211;-54
2023/07/08 04:52:05;;;;;;;3.00;1.37;;;;;;;;;;4976334;28;93670;-53
2023/07/08 04:54:33;;;;;;;2.40;1.73;;;;;;;;;;4977011;28;92045;-53
2023/07/08 04:57:02;;;;;;;1.60;1.40;;;;;;;;;;4985880;28;91390;-54
2023/07/08 04:59:34;;;;;;;1.60;1.23;;;;;;;;;;4996205;28;93268;-54
2023/07/08 05:02:02;;;;;;;2.87;1.33;;;;;;;;;;4994940;28;93797;-54
2023/07/08 05:04:31;;;;;;;1.50;1.40;;;;;;;;;;4976349;28;93578;-54
2023/07/08 05:06:59;;;;;;;1.30;1.20;;;;;;;;;;4976327;28;92075;-54
2023/07/08 05:09:30;;;;;;;3.17;1.50;;;;;;;;;;4978576;28;93490;-54
2023/07/08 05:11:59;;;;;;;1.23;1.13;;;;;;;;;;4994606;28;92938;-54
2023/07/08 05:14:27;;;;;;;1.97;1.40;;;;;;;;;;4977475;28;92947;-54
2023/07/08 05:16:57;;;;;;;1.13;1.00;;;;;;;;;;4975871;28;92130;-53
2023/07/08 05:19:25;;;;;;;2.07;1.33;;;;;;;;;;4992380;28;92101;-54
2023/07/08 05:21:54;;;;;;;2.10;1.60;;;;;;;;;;4983074;28;93295;-54
2023/07/08 05:24:22;;;;;;;4.37;1.30;;;;;;;;;;4987330;28;92200;-54
2023/07/08 05:26:52;;;;;;;8.73;1.37;;;;;;;;;;4993121;28;92193;-54
2023/07/08 05:29:21;;;;;;;1.30;1.20;;;;;;;;;;4979557;28;93891;-54
2023/07/08 05:31:49;;;;;;;1.57;1.00;;;;;;;;;;4975838;28;93767;-54
2023/07/08 05:34:18;;;;;;;3.27;1.23;;;;;;;;;;4982170;28;92199;-54
2023/07/08 05:36:46;;;;;;;4.60;1.40;;;;;;;;;;4985807;28;92137;-54
2023/07/08 05:39:15;;;;;;;1.33;1.17;;;;;;;;;;4985527;28;93109;-54
2023/07/08 05:41:43;;;;;;;1.57;1.30;;;;;;;;;;4986733;28;94037;-54
2023/07/08 05:44:13;;;;;;;1.90;1.10;;;;;;;;;;4985556;28;92110;-54
2023/07/08 05:46:41;;;;;;;1.87;1.17;;;;;;;;;;4985456;28;91552;-54
2023/07/08 05:49:10;;;;;;;2.43;1.00;;;;;;;;;;4988697;28;94178;-54
2023/07/08 05:51:38;;;;;;;1.70;1.10;;;;;;;;;;4983656;28;93917;-54
2023/07/08 05:54:07;;;;;;;1.37;1.00;;;;;;;;;;4988311;28;93504;-54
2023/07/08 05:56:35;;;;;;;1.30;0.90;;;;;;;;;;4993877;28;92208;-55
2023/07/08 05:59:04;;;;;;;1.57;1.00;;;;;;;;;;4981917;28;92929;-54
2023/07/08 06:01:34;;;;;;;2.47;1.20;;;;;;;;;;4988394;28;93729;-54
2023/07/08 06:04:02;;;;;;;3.13;1.23;;;;;;;;;;4988654;28;92107;-54
2023/07/08 06:06:31;;;;;;;1.77;1.13;;;;;;;;;;4986481;28;92138;-54
2023/07/08 06:09:00;;;;;;;0.80;0.80;;;;;;;;;;4986551;28;94315;-54
2023/07/08 06:11:29;;;;;;;1.17;0.93;;;;;;;;;;4978504;28;93899;-55
2023/07/08 06:14:00;;;;;;;1.03;0.80;;;;;;;;;;4987167;28;92523;-54
2023/07/08 06:16:29;;;;;;;2.03;0.97;;;;;;;;;;4976371;28;92474;-54
2023/07/08 06:19:09;;;;;;;1.67;1.10;;;;;;;;;;4980865;28;94981;-54
2023/07/08 06:21:38;;;;;;;2.13;1.10;;;;;;;;;;4981227;28;94134;-54
2023/07/08 06:24:07;;;;;;;0.80;0.80;;;;;;;;;;4995300;28;92060;-54
2023/07/08 06:26:35;;;;;;;1.90;1.00;;;;;;;;;;4995377;28;92268;-54
2023/07/08 06:29:03;;;;;;;3.53;1.00;;;;;;;;;;4979516;28;93161;-54
2023/07/08 06:31:32;;;;;;;1.17;0.80;;;;;;;;;;4995211;28;93990;-55
2023/07/08 06:34:01;;;;;;;1.20;1.10;;;;;;;;;;4995158;28;92012;-54
2023/07/08 06:36:31;;;;;;;1.60;1.20;;;;;;;;;;4982808;28;92223;-54
2023/07/08 06:38:59;;;;;;;3.77;1.33;;;;;;;;;;4977564;28;94284;-55
2023/07/08 06:41:27;;;;;;;1.73;0.77;;;;;;;;;;4993531;28;93819;-55
2023/07/08 06:43:56;;;;;;;3.10;1.30;;;;;;;;;;4983066;28;92978;-54
2023/07/08 06:46:24;;;;;;;1.57;1.10;;;;;;;;;;4994115;28;92249;-54
2023/07/08 06:48:53;;;;;;;3.83;1.10;;;;;;;;;;4994083;28;93331;-55
2023/07/08 06:51:22;;;;;;;0.97;0.87;;;;;;;;;;4994587;28;93818;-54
2023/07/08 06:53:51;;;;;;;1.97;1.30;;;;;;;;;;4976228;28;92019;-54
2023/07/08 06:56:20;;;;;;;0.90;0.80;;;;;;;;;;4975317;28;92091;-55
2023/07/08 06:58:48;;;;;;;1.30;0.90;;;;;;;;;;4991584;28;93180;-55
2023/07/08 07:01:16;;;;;;;3.63;1.13;;;;;;;;;;4994923;28;92873;-55
2023/07/08 07:03:45;;;;;;;2.23;1.20;;;;;;;;;;4994939;28;91978;-55
2023/07/08 07:06:13;;;;;;;1.43;1.13;;;;;;;;;;4994975;28;92520;-55
2023/07/08 07:08:42;;;;;;;1.13;1.03;;;;;;;;;;4981440;28;93976;-54
2023/07/08 07:11:12;;;;;;;1.10;1.00;;;;;;;;;;4994490;28;95060;-53
2023/07/08 07:13:40;;;;;;;2.23;1.10;;;;;;;;;;4994063;28;92070;-55
2023/07/08 07:16:08;;;;;;;1.60;0.90;;;;;;;;;;4994622;28;92575;-55
2023/07/08 07:18:37;;;;;;;1.50;1.00;;;;;;;;;;4984430;28;94388;-55
2023/07/08 07:21:05;;;;;;;2.33;1.20;;;;;;;;;;4974653;28;94056;-55
2023/07/08 07:23:35;;;;;;;1.80;1.27;;;;;;;;;;4980473;28;92051;-54
2023/07/08 07:26:04;;;;;;;3.00;1.30;;;;;;;;;;4989370;28;91472;-54
2023/07/08 07:28:34;;;;;;;2.20;1.20;;;;;;;;;;4989594;28;93186;-54
2023/07/08 07:31:02;;;;;;;2.20;1.60;;;;;;;;;;4993647;28;93051;-54
2023/07/08 07:33:31;;;;;;;2.67;1.13;;;;;;;;;;4993636;28;93331;-54
2023/07/08 07:36:00;;;;;;;1.27;1.10;;;;;;;;;;4993668;28;92581;-54
2023/07/08 07:38:29;;;;;;;1.77;1.50;;;;;;;;;;4994330;28;94059;-54
2023/07/08 07:40:59;;;;;;;1.87;1.47;;;;;;;;;;4984904;28;93886;-54
2023/07/08 07:43:28;;;;;;;1.13;1.00;;;;;;;;;;4980817;28;92709;-54
2023/07/08 07:45:58;;;;;;;2.50;1.33;;;;;;;;;;4992467;28;92213;-55
2023/07/08 07:48:27;;;;;;;2.23;1.10;;;;;;;;;;4996847;28;93357;-54
2023/07/08 07:50:55;;;;;;;1.77;1.10;;;;;;;;;;4997806;28;93933;-54
2023/07/08 07:53:23;;;;;;;1.53;1.23;;;;;;;;;;4997679;28;92088;-54
2023/07/08 07:55:57;;;;;;;1.07;0.97;;;;;;;;;;4993690;28;92075;-54
2023/07/08 07:58:26;;;;;;;2.40;1.30;;;;;;;;;;4981023;28;94075;-54
2023/07/08 08:00:54;;;;;;;1.47;1.10;;;;;;;;;;4978042;28;94930;-54
2023/07/08 08:03:24;;;;;;;1.53;0.97;;;;;;;;;;4982049;28;92072;-54
2023/07/08 08:05:53;;;;;;;1.60;1.00;;;;;;;;;;4989478;28;92160;-54
2023/07/08 08:08:22;;;;;;;3.73;2.07;;;;;;;;;;4983261;28;94468;-54
2023/07/08 08:10:50;;;;;;;2.23;1.63;;;;;;;;;;4989962;28;93881;-54
2023/07/08 08:13:19;;;;;;;2.37;1.57;;;;;;;;;;4990086;28;91993;-54
2023/07/08 08:15:47;;;;;;;1.73;1.07;;;;;;;;;;4996000;28;91399;-54
2023/07/08 08:18:16;;;;;;;1.83;1.10;;;;;;;;;;4996563;28;92354;-54
2023/07/08 08:20:46;;;;;;;1.63;1.40;;;;;;;;;;4996765;28;93003;-54
2023/07/08 08:23:14;;;;;;;2.73;1.33;;;;;;;;;;4994597;28;93049;-54
2023/07/08 08:25:42;;;;;;;1.93;1.50;;;;;;;;;;4988386;28;92682;-54
2023/07/08 08:28:11;;;;;;;2.57;1.43;;;;;;;;;;4987675;28;93000;-54
2023/07/08 08:30:39;;;;;;;2.40;1.30;;;;;;;;;;4989659;28;93737;-54
2023/07/08 08:33:08;;;;;;;1.97;1.57;;;;;;;;;;5000196;28;91817;-54
2023/07/08 08:35:36;;;;;;;3.07;1.50;;;;;;;;;;4994004;28;92201;-54
2023/07/08 08:38:06;;;;;;;1.40;1.23;;;;;;;;;;4979989;28;94146;-53
2023/07/08 08:40:34;;;;;;;4.00;1.70;;;;;;;;;;4998781;28;93876;-54
2023/07/08 08:43:03;;;;;;;2.80;1.07;;;;;;;;;;4999839;28;91951;-54
2023/07/08 08:45:34;;;;;;;5.93;1.73;;;;;;;;;;4997522;28;92192;-54
2023/07/08 08:48:02;;;;;;;2.00;1.50;;;;;;;;;;4979333;28;94501;-54
2023/07/08 08:50:32;;;;;;;1.23;1.13;;;;;;;;;;4979675;28;94564;-54
2023/07/08 08:53:01;;;;;;;4.53;1.37;;;;;;;;;;4981347;28;92155;-54
2023/07/08 08:55:31;;;;;;;6.50;1.47;;;;;;;;;;4979878;28;92067;-54
2023/07/08 08:58:06;;;;;;;1.87;1.30;;;;;;;;;;4992432;28;93306;-54
2023/07/08 09:00:37;;;;;;;3.63;1.53;;;;;;;;;;4984123;28;94018;-54
2023/07/08 09:03:08;;;;;;;2.10;1.20;;;;;;;;;;4990655;28;92018;-54
2023/07/08 09:05:37;;;;;;;2.03;1.30;;;;;;;;;;4988015;28;91338;-54
2023/07/08 09:08:06;;;;;;;1.43;1.03;;;;;;;;;;4991638;28;93321;-54
2023/07/08 09:10:41;;;;;;;1.63;1.17;;;;;;;;;;4998505;28;92896;-54
2023/07/08 09:13:10;;;;;;;1.30;1.20;;;;;;;;;;4990130;28;93022;-55
2023/07/08 09:15:39;;;;;;;2.03;1.10;;;;;;;;;;4989223;28;92168;-54
2023/07/08 09:18:12;;;;;;;2.00;1.40;;;;;;;;;;4988824;28;94374;-54
2023/07/08 09:20:41;;;;;;;3.60;1.80;;;;;;;;;;4994872;28;92699;-54
2023/07/08 09:23:11;;;;;;;2.83;1.50;;;;;;;;;;4978331;28;91924;-54
2023/07/08 09:25:42;;;;;;;1.30;1.20;;;;;;;;;;4981824;28;92494;-54
2023/07/08 09:28:10;;;;;;;1.33;1.23;;;;;;;;;;4982870;28;93471;-54
2023/07/08 09:30:38;;;;;;;2.10;1.40;;;;;;;;;;4978499;28;93851;-60
2023/07/08 09:33:07;;;;;;;2.47;1.57;;;;;;;;;;4980423;28;92427;-54
2023/07/08 09:35:39;;;;;;;1.37;1.20;;;;;;;;;;4983665;28;92446;-54
2023/07/08 09:38:08;;;;;;;1.73;1.60;;;;;;;;;;4977259;28;94229;-54
2023/07/08 09:40:36;;;;;;;4.70;1.90;;;;;;;;;;4982410;28;94770;-55
2023/07/08 09:43:11;;;;;;;1.90;1.10;;;;;;;;;;4975825;28;92603;-56
2023/07/08 09:45:41;;;;;;;2.47;1.53;;;;;;;;;;4987008;28;92090;-54
2023/07/08 09:48:16;;;;;;;2.63;1.73;;;;;;;;;;4986752;28;93127;-54
2023/07/08 09:50:44;;;;;;;2.00;1.37;;;;;;;;;;4977939;28;93826;-55
2023/07/08 09:53:13;;;;;;;2.30;1.50;;;;;;;;;;4987304;28;92060;-54
2023/07/08 09:55:42;;;;;;;1.63;1.40;;;;;;;;;;4994435;28;91387;-55
2023/07/08 09:58:12;;;;;;;2.87;1.73;;;;;;;;;;4993726;28;93252;-55
2023/07/08 10:00:41;;;;;;;1.93;1.33;;;;;;;;;;4986419;28;93487;-54
2023/07/08 10:03:11;;;;;;;2.43;1.47;;;;;;;;;;4989053;28;93564;-54
2023/07/08 10:05:40;;;;;;;3.20;1.67;;;;;;;;;;4990483;28;92142;-54
2023/07/08 10:08:13;;;;;;;2.07;1.50;;;;;;;;;;4980708;28;94359;-54
2023/07/08 10:10:42;;;;;;;2.33;1.33;;;;;;;;;;4976761;28;92703;-54
2023/07/08 10:13:17;;;;;;;3.43;1.53;;;;;;;;;;4975725;28;92038;-54
2023/07/08 10:15:47;;;;;;;3.57;1.37;;;;;;;;;;4988200;28;92038;-54
2023/07/08 10:18:16;;;;;;;3.03;1.67;;;;;;;;;;4984034;28;93369;-53
2023/07/08 10:20:48;;;;;;;4.07;2.10;;;;;;;;;;4986668;28;93651;-54
2023/07/08 10:23:19;;;;;;;3.20;2.00;;;;;;;;;;4984956;28;92331;-54
2023/07/08 10:25:49;;;;;;;2.30;2.03;;;;;;;;;;4975103;28;92040;-54
2023/07/08 10:28:25;;;;;;;2.57;2.00;;;;;;;;;;4974417;28;94124;-54
2023/07/08 10:30:56;;;;;;;2.63;1.67;;;;;;;;;;4975185;28;93739;-54
2023/07/08 10:33:33;;;;;;;3.20;1.50;;;;;;;;;;4975930;28;92665;-54
2023/07/08 10:36:14;;;;;;;2.37;1.50;;;;;;;;;;4975242;28;92149;-54
2023/07/08 10:38:45;;;;;;;2.73;1.80;;;;;;;;;;4975213;28;93110;-54
2023/07/08 10:41:15;;;;;;;2.87;1.63;;;;;;;;;;4975243;28;92846;-55
2023/07/08 10:43:52;;;;;;;2.57;1.73;;;;;;;;;;4975432;28;92044;-54
2023/07/08 10:46:24;;;;;;;5.10;1.90;;;;;;;;;;4975658;28;91464;-54
2023/07/08 10:48:59;;;;;;;2.00;1.80;;;;;;;;;;4974923;28;94407;-54
2023/07/08 10:51:28;;;;;;;2.50;1.87;;;;;;;;;;4975330;28;93927;-54
2023/07/08 10:54:00;;;;;;;2.10;1.83;;;;;;;;;;4980584;28;93379;-55
2023/07/08 10:56:30;;;;;;;2.77;1.70;;;;;;;;;;4994654;28;92104;-54
2023/07/08 10:59:11;;;;;;;3.20;2.03;;;;;;;;;;4994774;28;93162;-54
2023/07/08 11:01:43;;;;;;;3.80;2.03;;;;;;;;;;4995034;28;93882;-54
2023/07/08 11:04:24;;;;;;;5.07;2.13;;;;;;;;;;4995349;28;92071;-54
2023/07/08 11:06:54;;;;;;;4.70;2.00;;;;;;;;;;4994882;28;92110;-54
2023/07/08 11:09:24;;;;;;;3.40;1.77;;;;;;;;;;4994890;28;93375;-54
2023/07/08 11:11:53;;;;;;;3.67;2.00;;;;;;;;;;4995018;28;93101;-54
2023/07/08 11:14:24;;;;;;;2.73;1.90;;;;;;;;;;4995041;28;91996;-55
2023/07/08 11:16:53;;;;;;;4.60;1.63;;;;;;;;;;4994758;28;92159;-54
2023/07/08 11:19:23;;;;;;;3.07;2.03;;;;;;;;;;4993908;28;95611;-54
2023/07/08 11:21:52;;;;;;;3.10;2.07;;;;;;;;;;4995581;28;94121;-54
2023/07/08 11:24:23;;;;;;;4.13;1.83;;;;;;;;;;4998139;28;91951;-54
2023/07/08 11:26:52;;;;;;;3.63;2.00;;;;;;;;;;4998279;28;92276;-54
2023/07/08 11:29:20;;;;;;;3.63;2.27;;;;;;;;;;4998087;28;95408;-54
2023/07/08 11:31:50;;;;;;;3.13;1.73;;;;;;;;;;4997963;28;92079;-54
2023/07/08 11:34:19;;;;;;;3.53;1.97;;;;;;;;;;4998148;28;92037;-54
2023/07/08 11:36:47;;;;;;;4.17;2.07;;;;;;;;;;4997931;28;91361;-54
2023/07/08 11:39:28;;;;;;;4.40;2.40;;;;;;;;;;4997501;28;94326;-53
2023/07/08 11:42:05;;;;;;;3.03;1.93;;;;;;;;;;4997534;28;93819;-54
2023/07/08 11:44:34;;;;;;;3.30;1.70;;;;;;;;;;4997696;28;93259;-54
2023/07/08 11:47:12;;;;;;;3.93;1.90;;;;;;;;;;4997854;28;92070;-54
2023/07/08 11:49:40;;;;;;;2.83;2.03;;;;;;;;;;4997634;28;93075;-54
2023/07/08 11:52:12;;;;;;;2.37;1.93;;;;;;;;;;4998032;28;93115;-54
2023/07/08 11:54:40;;;;;;;4.27;2.00;;;;;;;;;;4997881;28;92033;-54
2023/07/08 11:57:10;;;;;;;3.77;2.10;;;;;;;;;;4997603;28;92596;-54
2023/07/08 11:59:39;;;;;;;2.63;1.83;;;;;;;;;;4997267;28;94145;-54
2023/07/08 12:02:13;;;;;;;3.13;2.30;;;;;;;;;;4997797;28;92798;-54
2023/07/08 12:04:55;;;;;;;3.20;1.83;;;;;;;;;;4997463;28;92717;-54
2023/07/08 12:07:30;;;;;;;4.27;2.50;;;;;;;;;;4997402;28;92779;-54
2023/07/08 12:10:00;;;;;;;1.87;1.43;;;;;;;;;;4996816;28;95244;-54
2023/07/08 12:12:31;;;;;;;3.50;1.87;;;;;;;;;;4997029;28;93669;-52
2023/07/08 12:15:01;;;;;;;3.57;2.40;;;;;;;;;;4997589;28;91978;-55
2023/07/08 12:17:31;;;;;;;2.83;1.60;;;;;;;;;;4997219;28;92154;-56
2023/07/08 12:20:00;;;;;;;3.07;1.63;;;;;;;;;;4997246;28;93069;-54
2023/07/08 12:22:28;;;;;;;3.67;2.13;;;;;;;;;;4996963;28;92720;-54
2023/07/08 12:24:58;;;;;;;6.83;2.70;;;;;;;;;;4997179;28;92083;-54
2023/07/08 12:27:26;;;;;;;2.53;1.87;;;;;;;;;;4997564;28;91444;-54
2023/07/08 12:29:55;;;;;;;3.07;1.93;;;;;;;;;;4996779;28;94321;-54
2023/07/08 12:32:25;;;;;;;3.17;2.23;;;;;;;;;;4996467;28;93458;-54
2023/07/08 12:34:55;;;;;;;3.13;2.23;;;;;;;;;;4996799;28;93812;-54
2023/07/08 12:37:23;;;;;;;4.27;2.10;;;;;;;;;;4996785;28;91993;-54
2023/07/08 12:39:59;;;;;;;3.00;1.87;;;;;;;;;;4996866;28;94218;-54
2023/07/08 12:42:27;;;;;;;6.10;2.77;;;;;;;;;;4993516;28;93137;-54
2023/07/08 12:44:56;;;;;;;5.80;2.30;;;;;;;;;;4976740;28;92536;-54
2023/07/08 12:47:24;;;;;;;6.57;1.87;;;;;;;;;;4976554;28;92103;-53
2023/07/08 12:49:54;;;;;;;2.80;1.87;;;;;;;;;;4976468;28;93039;-54
2023/07/08 12:52:23;;;;;;;2.83;1.73;;;;;;;;;;4976650;28;92792;-54
2023/07/08 12:54:51;;;;;;;2.87;1.97;;;;;;;;;;4976945;28;92078;-54
2023/07/08 12:57:20;;;;;;;3.10;1.67;;;;;;;;;;4976703;28;92127;-56
2023/07/08 12:59:48;;;;;;;4.47;2.03;;;;;;;;;;4976395;28;95498;-54
2023/07/08 13:02:17;;;;;;;2.73;1.90;;;;;;;;;;4976691;28;93774;-55
2023/07/08 13:04:46;;;;;;;2.70;2.17;;;;;;;;;;4976811;28;92070;-54
2023/07/08 13:07:19;;;;;;;2.83;2.13;;;;;;;;;;4976845;28;92127;-54
2023/07/08 13:09:49;;;;;;;5.10;2.03;;;;;;;;;;4976386;28;93954;-55
2023/07/08 13:12:18;;;;;;;3.00;1.77;;;;;;;;;;4976179;28;93867;-54
2023/07/08 13:14:46;;;;;;;3.10;1.97;;;;;;;;;;4976794;28;92204;-54
2023/07/08 13:17:15;;;;;;;4.47;2.00;;;;;;;;;;4979080;28;91427;-54
2023/07/08 13:19:43;;;;;;;4.30;2.47;;;;;;;;;;4975924;28;94130;-53
2023/07/08 13:22:14;;;;;;;5.97;2.60;;;;;;;;;;4976147;28;92834;-54
2023/07/08 13:24:43;;;;;;;4.10;2.07;;;;;;;;;;4976195;28;92929;-54
2023/07/08 13:27:15;;;;;;;2.40;2.07;;;;;;;;;;4976500;28;92085;-54
2023/07/08 13:29:44;;;;;;;3.13;2.10;;;;;;;;;;4976455;28;93280;-54
2023/07/08 13:32:13;;;;;;;3.30;1.93;;;;;;;;;;4976260;28;93752;-54
2023/07/08 13:34:41;;;;;;;3.43;2.00;;;;;;;;;;4976311;28;92136;-52
2023/07/08 13:37:11;;;;;;;4.70;2.00;;;;;;;;;;4976134;28;92342;-55
2023/07/08 13:39:39;;;;;;;3.87;1.80;;;;;;;;;;4992296;28;93161;-54
2023/07/08 13:42:09;;;;;;;2.73;1.90;;;;;;;;;;4995858;28;93892;-55
2023/07/08 13:44:44;;;;;;;2.37;1.83;;;;;;;;;;4995615;28;92682;-54
2023/07/08 13:47:22;;;;;;;2.70;2.17;;;;;;;;;;4995712;28;92104;-54
2023/07/08 13:49:50;;;;;;;3.90;2.03;;;;;;;;;;4994758;28;94014;-54
2023/07/08 13:52:19;;;;;;;5.23;2.40;;;;;;;;;;4995729;28;94780;-55
2023/07/08 13:54:49;;;;;;;4.33;2.27;;;;;;;;;;4996198;28;92077;-55
2023/07/08 13:57:20;;;;;;;2.13;1.70;;;;;;;;;;4996005;28;92090;-56
2023/07/08 13:59:48;;;;;;;4.40;2.07;;;;;;;;;;4993824;28;93228;-54
2023/07/08 14:02:17;;;;;;;2.40;1.70;;;;;;;;;;4992085;28;92814;-54
2023/07/08 14:04:46;;;;;;;2.83;2.13;;;;;;;;;;4995527;28;92065;-54
2023/07/08 14:07:15;;;;;;;4.53;2.53;;;;;;;;;;4995837;28;91366;-54
2023/07/08 14:09:44;;;;;;;4.30;2.40;;;;;;;;;;4995313;28;93284;-54
2023/07/08 14:12:12;;;;;;;3.17;2.50;;;;;;;;;;4995449;28;93242;-54
2023/07/08 14:14:42;;;;;;;4.83;2.07;;;;;;;;;;4995118;28;93530;-54
2023/07/08 14:17:13;;;;;;;5.57;2.20;;;;;;;;;;4995238;28;94171;-54
2023/07/08 14:19:41;;;;;;;4.40;2.37;;;;;;;;;;4985400;28;93138;-55
2023/07/08 14:22:17;;;;;;;3.43;2.13;;;;;;;;;;4995558;28;93967;-55
2023/07/08 14:24:46;;;;;;;6.97;2.47;;;;;;;;;;4975911;28;92093;-54
2023/07/08 14:27:16;;;;;;;5.10;2.20;;;;;;;;;;4975750;28;92170;-54
2023/07/08 14:29:47;;;;;;;4.33;2.43;;;;;;;;;;4975513;28;91988;-54
2023/07/08 14:32:16;;;;;;;5.27;2.37;;;;;;;;;;4975475;28;94021;-54
2023/07/08 14:34:44;;;;;;;3.47;1.83;;;;;;;;;;4975966;28;92021;-55
2023/07/08 14:37:13;;;;;;;3.17;1.83;;;;;;;;;;4975102;28;92172;-54
2023/07/08 14:39:41;;;;;;;4.70;2.17;;;;;;;;;;4974293;28;92960;-55
2023/07/08 14:42:10;;;;;;;5.10;2.30;;;;;;;;;;4994216;28;93739;-54
2023/07/08 14:44:39;;;;;;;2.70;1.77;;;;;;;;;;4995397;28;92109;-55
2023/07/08 14:47:10;;;;;;;4.20;2.13;;;;;;;;;;4994652;28;92235;-54
2023/07/08 14:49:39;;;;;;;3.63;2.20;;;;;;;;;;4995064;28;93154;-54
2023/07/08 14:52:08;;;;;;;3.13;2.10;;;;;;;;;;4994648;28;93937;-54
2023/07/08 14:54:36;;;;;;;2.63;2.07;;;;;;;;;;4987545;28;93236;-53
2023/07/08 14:57:05;;;;;;;3.70;2.30;;;;;;;;;;4978570;28;91477;-54